カーブル の空港の天気 - METARとTAF

カーブル国際空港 ( OAKB / KBL ) - アフガニスタン カーブル
飛行場実況気象(Metar)
観測時間09/27 01:20 AFT (09/26 20:50 UTC)
風向・風速不定 1m/s
視程10km以上
天気現象
少しの雲 雲底高度 1520m
気温17℃
湿度59%
気圧1016hPa
METAROAKB 262050Z VRB02KT 9999 FEW050 17/09 Q1016 RMK A3001 BLU BLU
過去の天気等 Google飛行場航空写真 Wunderground天気予報

過去48時間のMETAR

飛行場予報(TAF)
発表時間: 9/26 21:35 AFT (9/26 17:05 UTC)
予報対象時間: 26日22時 AFT ~ 27日22時 AFT
風向・風速東 6m/s
視程10km以上
少しの雲 雲底高度 3050m
少しの雲 雲底高度 4570m
26日23時 AFT ~ 27日1時 AFT に徐々に
風向・風速不定 1m/s
27日2時 AFT ~ 27日8時 AFT に一時的に
視程5000m
天気現象煙霧
27日6時 AFT ~ 27日8時 AFT に徐々に
全天の4割程度の雲 雲底高度 1520m
27日14時 AFT ~ 27日16時 AFT に徐々に
風向・風速東南東 6m/s
全天の4割程度の雲 雲底高度 2130m
全天の4割程度の雲 雲底高度 3050m
27日16時 AFT ~ 27日22時 AFT に一時的に
風向・風速東南東 8m/s 瞬間風速 13m/s
TAF OAKB 261705Z 2618/2718 09012KT 9999 FEW100 FEW150
BECMG 2619/2621 VRB02KT
TEMPO 2622/2704 5000 HZ
BECMG 2702/2704 SCT050
BECMG 2710/2712 11012KT SCT070 SCT100
TEMPO 2712/2718 12015G25KT